createdAt,value
2022-11-05T00:04:30.715Z,9.70
2022-11-05T00:09:34.102Z,9.60
2022-11-05T00:14:55.435Z,9.50
2022-11-05T00:19:57.942Z,9.70
2022-11-05T00:25:18.920Z,9.80
2022-11-05T00:30:25.875Z,9.70
2022-11-05T00:35:28.511Z,9.80
2022-11-05T00:40:30.933Z,9.80
2022-11-05T00:45:33.875Z,9.80
2022-11-05T00:50:36.654Z,9.90
2022-11-05T00:55:40.086Z,9.80
2022-11-05T01:00:45.806Z,9.80
2022-11-05T01:05:51.271Z,9.70
2022-11-05T01:10:58.621Z,9.60
2022-11-05T01:16:09.609Z,9.70
2022-11-05T01:21:14.564Z,9.70
2022-11-05T01:26:18.298Z,9.70
2022-11-05T01:31:21.665Z,9.80
2022-11-05T01:36:24.101Z,9.70
2022-11-05T01:41:26.504Z,9.80
2022-11-05T01:46:41.859Z,9.70
2022-11-05T01:51:46.168Z,9.70
2022-11-05T01:56:55.294Z,9.70
2022-11-05T02:01:58.200Z,9.70
2022-11-05T02:07:00.806Z,9.70
2022-11-05T02:12:03.679Z,9.80
2022-11-05T02:17:18.961Z,9.60
2022-11-05T02:22:33.030Z,9.60
2022-11-05T02:28:09.383Z,9.60
2022-11-05T02:33:29.326Z,9.60
2022-11-05T02:38:40.560Z,9.70
2022-11-05T02:44:05.950Z,9.60
2022-11-05T02:49:19.265Z,9.50
2022-11-05T02:54:54.206Z,9.60
2022-11-05T03:00:49.145Z,9.60
2022-11-05T03:05:59.696Z,9.50
2022-11-05T03:11:16.694Z,9.60
2022-11-05T03:16:26.344Z,9.50
2022-11-05T03:21:41.022Z,9.50
2022-11-05T03:26:51.205Z,9.40
2022-11-05T03:31:57.558Z,9.50
2022-11-05T03:37:02.518Z,9.20
2022-11-05T03:42:08.802Z,9.20
2022-11-05T03:47:19.714Z,9.10
2022-11-05T03:52:27.214Z,9.10
2022-11-05T03:57:34.502Z,8.90
2022-11-05T04:02:38.558Z,9.10
2022-11-05T04:07:59.859Z,9.20
2022-11-05T04:13:20.949Z,9.10
2022-11-05T04:18:23.314Z,9.30
2022-11-05T04:23:44.226Z,9.20
2022-11-05T04:29:07.951Z,9.20
2022-11-05T04:34:10.548Z,9.40
2022-11-05T04:39:12.982Z,9.20
2022-11-05T04:44:16.349Z,9.40
2022-11-05T04:49:18.698Z,9.50
2022-11-05T04:54:21.032Z,9.30
2022-11-05T04:59:23.468Z,9.40
2022-11-05T05:04:25.989Z,9.50
2022-11-05T05:09:28.329Z,9.40
2022-11-05T05:14:30.738Z,9.40
2022-11-05T05:19:56.101Z,9.40
2022-11-05T05:24:59.984Z,9.40
2022-11-05T05:30:02.458Z,9.40
2022-11-05T05:35:05.201Z,9.40
2022-11-05T05:40:08.806Z,9.50
2022-11-05T05:45:12.446Z,9.40
2022-11-05T05:50:14.898Z,9.60
2022-11-05T05:55:17.324Z,9.50
2022-11-05T06:00:19.815Z,9.60
2022-11-05T06:05:22.282Z,9.50
2022-11-05T06:10:25.702Z,9.40
2022-11-05T06:15:31.820Z,9.40
2022-11-05T06:20:37.981Z,9.40
2022-11-05T06:25:41.518Z,9.40
2022-11-05T06:30:50.635Z,9.40
2022-11-05T06:35:54.149Z,9.30
2022-11-05T06:40:59.472Z,9.40
2022-11-05T06:46:02.922Z,9.40
2022-11-05T06:51:06.546Z,9.50
2022-11-05T06:56:09.329Z,9.50
2022-11-05T07:01:11.838Z,9.50
2022-11-05T07:06:14.644Z,9.50
2022-11-05T07:11:17.017Z,9.60
2022-11-05T07:16:19.428Z,9.60
2022-11-05T07:21:22.387Z,9.60
2022-11-05T07:26:24.846Z,9.80
2022-11-05T07:31:27.179Z,9.70
2022-11-05T07:36:29.604Z,9.90
2022-11-05T07:41:31.952Z,9.90
2022-11-05T07:46:34.491Z,10.00
2022-11-05T07:51:36.843Z,9.80
2022-11-05T07:56:39.445Z,9.80
2022-11-05T08:01:41.970Z,9.80
2022-11-05T08:06:44.397Z,9.80
2022-11-05T08:11:46.793Z,10.00
2022-11-05T08:16:49.137Z,10.30
2022-11-05T08:21:51.504Z,10.30
2022-11-05T08:26:54.166Z,10.30
2022-11-05T08:31:56.506Z,10.30
2022-11-05T08:37:01.302Z,10.40
2022-11-05T08:42:03.795Z,10.50
2022-11-05T08:47:06.221Z,10.60
2022-11-05T08:52:08.658Z,10.50
2022-11-05T08:57:11.210Z,10.50
2022-11-05T09:02:13.766Z,10.60
2022-11-05T09:07:16.298Z,10.60
2022-11-05T09:12:18.708Z,10.50
2022-11-05T09:17:22.146Z,10.40
2022-11-05T09:22:24.546Z,10.50
2022-11-05T09:27:26.907Z,10.70
2022-11-05T09:32:34.011Z,10.60
2022-11-05T09:37:37.006Z,10.90
2022-11-05T09:42:43.194Z,10.80
2022-11-05T09:47:52.327Z,10.90
2022-11-05T09:52:54.719Z,11.00
2022-11-05T09:58:02.784Z,11.10
2022-11-05T10:03:11.752Z,11.10
2022-11-05T10:08:20.351Z,11.10
2022-11-05T10:13:36.890Z,10.80
2022-11-05T10:18:47.482Z,10.90
2022-11-05T10:23:50.082Z,11.00
2022-11-05T10:28:53.342Z,10.90
2022-11-05T10:34:00.808Z,11.10
2022-11-05T10:39:15.401Z,11.20
2022-11-05T10:44:24.798Z,11.20
2022-11-05T10:50:03.355Z,11.10
2022-11-05T10:55:36.392Z,11.00
2022-11-05T11:00:39.264Z,11.00
2022-11-05T11:05:41.806Z,11.20
2022-11-05T11:10:54.680Z,11.00
2022-11-05T11:16:16.467Z,11.20
2022-11-05T11:21:23.114Z,11.10
2022-11-05T11:26:37.800Z,11.10
2022-11-05T11:31:40.940Z,11.20
2022-11-05T11:36:50.329Z,11.20
2022-11-05T11:42:00.138Z,11.30
2022-11-05T11:47:13.082Z,11.40
2022-11-05T11:52:24.012Z,11.50
2022-11-05T11:57:29.231Z,11.40
2022-11-05T12:02:49.857Z,11.40
2022-11-05T12:08:00.035Z,11.60
2022-11-05T12:13:20.842Z,11.60
2022-11-05T12:18:38.070Z,11.50
2022-11-05T12:23:57.327Z,11.50
2022-11-05T12:29:18.285Z,11.60
2022-11-05T12:34:55.845Z,11.60
2022-11-05T12:40:16.824Z,11.60
2022-11-05T12:45:30.414Z,11.80
2022-11-05T12:51:14.938Z,11.80
2022-11-05T12:56:33.277Z,11.70
2022-11-05T13:01:46.068Z,11.80
2022-11-05T13:06:54.972Z,11.90
2022-11-05T13:12:02.277Z,12.00
2022-11-05T13:17:11.306Z,12.00
2022-11-05T13:22:46.420Z,12.20
2022-11-05T13:28:12.676Z,12.60
2022-11-05T13:33:31.950Z,12.70
2022-11-05T13:38:53.197Z,12.40
2022-11-05T13:44:19.392Z,12.20
2022-11-05T13:49:33.299Z,12.50
2022-11-05T13:54:52.005Z,12.80
2022-11-05T14:00:19.533Z,12.90
2022-11-05T14:05:28.697Z,13.50
2022-11-05T14:10:40.185Z,13.70
2022-11-05T14:15:58.492Z,14.00
2022-11-05T14:21:03.334Z,14.10
2022-11-05T14:26:25.617Z,13.10
2022-11-05T14:32:02.552Z,13.60
2022-11-05T14:37:10.527Z,14.40
2022-11-05T14:42:27.545Z,14.30
2022-11-05T14:47:34.395Z,13.70
2022-11-05T14:52:38.462Z,12.90
2022-11-05T14:58:02.268Z,12.70
2022-11-05T15:03:45.763Z,12.30
2022-11-05T15:08:49.015Z,12.00
2022-11-05T15:14:02.860Z,11.70
2022-11-05T15:19:10.264Z,11.50
2022-11-05T15:24:16.262Z,11.20
2022-11-05T15:29:24.636Z,11.00
2022-11-05T15:34:32.613Z,10.80
2022-11-05T15:39:45.362Z,10.70
2022-11-05T15:44:53.224Z,10.60
2022-11-05T15:50:17.427Z,10.50
2022-11-05T15:55:24.460Z,10.50
2022-11-05T16:00:29.477Z,10.40
2022-11-05T16:05:34.688Z,10.50
2022-11-05T16:10:38.828Z,10.30
2022-11-05T16:15:56.737Z,10.30
2022-11-05T16:21:12.221Z,10.10
2022-11-05T16:32:01.325Z,9.90
2022-11-05T16:37:05.983Z,9.80
2022-11-05T16:42:23.546Z,9.60
2022-11-05T16:47:26.453Z,9.50
2022-11-05T16:52:29.078Z,9.40
2022-11-05T16:57:32.732Z,9.30
2022-11-05T17:02:35.213Z,9.20
2022-11-05T17:07:41.346Z,8.80
2022-11-05T17:12:45.597Z,8.50
2022-11-05T17:17:48.832Z,8.40
2022-11-05T17:22:51.257Z,8.20
2022-11-05T17:27:53.704Z,8.00
2022-11-05T17:32:56.134Z,7.90
2022-11-05T17:37:58.672Z,7.90
2022-11-05T17:43:01.556Z,7.80
2022-11-05T17:48:05.115Z,7.70
2022-11-05T17:53:07.554Z,7.60
2022-11-05T17:58:10.552Z,7.50
2022-11-05T18:03:14.022Z,7.20
2022-11-05T18:08:16.730Z,7.20
2022-11-05T18:13:19.127Z,7.10
2022-11-05T18:18:22.062Z,7.10
2022-11-05T18:23:24.566Z,6.90
2022-11-05T18:28:29.939Z,6.90
2022-11-05T18:33:32.303Z,6.90
2022-11-05T18:38:34.854Z,6.80
2022-11-05T18:43:37.211Z,6.60
2022-11-05T18:48:39.666Z,6.40
2022-11-05T18:53:42.966Z,6.50
2022-11-05T18:58:45.630Z,6.40
2022-11-05T19:03:50.437Z,6.30
2022-11-05T19:08:55.087Z,6.40
2022-11-05T19:13:57.860Z,6.30
2022-11-05T19:19:02.069Z,6.30
2022-11-05T19:24:04.837Z,6.00
2022-11-05T19:29:07.402Z,6.10
2022-11-05T19:34:09.822Z,5.90
2022-11-05T19:39:15.548Z,5.80
2022-11-05T19:44:17.992Z,5.60
2022-11-05T19:49:20.419Z,5.50
2022-11-05T19:54:22.928Z,5.30
2022-11-05T19:59:25.382Z,5.30
2022-11-05T20:04:27.784Z,5.10
2022-11-05T20:09:30.121Z,5.20
2022-11-05T20:14:33.746Z,5.20
2022-11-05T20:19:36.236Z,5.30
2022-11-05T20:24:38.712Z,5.10
2022-11-05T20:29:41.248Z,5.10
2022-11-05T20:34:44.640Z,5.00
2022-11-05T20:39:46.989Z,4.90
2022-11-05T20:44:49.426Z,4.90
2022-11-05T20:49:52.116Z,5.00
2022-11-05T20:54:54.541Z,5.10
2022-11-05T20:59:56.938Z,4.80
2022-11-05T21:04:59.319Z,4.80
2022-11-05T21:10:01.908Z,4.80
2022-11-05T21:15:04.710Z,4.50
2022-11-05T21:20:07.551Z,4.50
2022-11-05T21:25:10.506Z,4.70
2022-11-05T21:30:13.484Z,4.50
2022-11-05T21:35:16.054Z,4.30
2022-11-05T21:40:18.641Z,4.60
2022-11-05T21:45:21.039Z,4.60
2022-11-05T21:50:43.723Z,4.40
2022-11-05T21:56:15.665Z,4.30
2022-11-05T22:01:18.385Z,4.10
2022-11-05T22:06:20.987Z,4.10
2022-11-05T22:11:23.336Z,4.20
2022-11-05T22:16:25.765Z,3.90
2022-11-05T22:21:28.139Z,3.90
2022-11-05T22:26:30.694Z,3.90
2022-11-05T22:31:36.460Z,3.70
2022-11-05T22:36:39.557Z,3.70
2022-11-05T22:41:43.025Z,3.90
2022-11-05T22:46:45.516Z,3.70
2022-11-05T22:51:48.001Z,3.60
2022-11-05T22:56:50.414Z,3.60
2022-11-05T23:01:52.846Z,3.40
2022-11-05T23:07:14.120Z,3.40
2022-11-05T23:12:24.558Z,3.40
2022-11-05T23:17:45.593Z,3.40
2022-11-05T23:23:06.815Z,3.30
2022-11-05T23:28:11.007Z,3.40
2022-11-05T23:33:13.672Z,3.70
2022-11-05T23:38:34.942Z,3.40
2022-11-05T23:43:56.156Z,3.40
2022-11-05T23:48:58.560Z,3.20
2022-11-05T23:54:00.979Z,3.10
2022-11-05T23:59:04.831Z,3.10
